createdAt,value
2022-11-14T00:01:22.085Z,2.40
2022-11-14T00:04:07.428Z,2.30
2022-11-14T00:06:52.764Z,2.30
2022-11-14T00:09:41.270Z,2.30
2022-11-14T00:12:26.879Z,2.30
2022-11-14T00:15:12.599Z,2.20
2022-11-14T00:17:57.739Z,2.20
2022-11-14T00:20:43.041Z,2.20
2022-11-14T00:23:28.510Z,2.30
2022-11-14T00:26:13.822Z,2.20
2022-11-14T00:28:59.455Z,2.20
2022-11-14T00:31:44.524Z,2.20
2022-11-14T00:34:29.913Z,2.20
2022-11-14T00:37:15.520Z,2.20
2022-11-14T00:40:01.136Z,2.10
2022-11-14T00:42:46.527Z,2.00
2022-11-14T00:45:31.936Z,1.90
2022-11-14T00:48:17.388Z,1.90
2022-11-14T00:51:03.076Z,1.80
2022-11-14T00:53:48.242Z,1.90
2022-11-14T00:56:33.749Z,2.00
2022-11-14T00:59:19.120Z,2.00
2022-11-14T01:02:04.681Z,2.10
2022-11-14T01:04:50.157Z,2.10
2022-11-14T01:07:35.429Z,2.10
2022-11-14T01:10:21.398Z,2.20
2022-11-14T01:13:06.828Z,2.30
2022-11-14T01:15:52.388Z,2.30
2022-11-14T01:18:38.121Z,2.30
2022-11-14T01:21:23.522Z,2.20
2022-11-14T01:24:09.071Z,2.10
2022-11-14T01:26:57.638Z,2.00
2022-11-14T01:29:43.186Z,1.90
2022-11-14T01:32:28.756Z,2.00
2022-11-14T01:35:14.025Z,2.10
2022-11-14T01:37:59.505Z,1.90
2022-11-14T01:40:46.453Z,1.90
2022-11-14T01:43:37.490Z,2.00
2022-11-14T01:46:36.408Z,2.10
2022-11-14T01:49:25.911Z,2.20
2022-11-14T01:52:15.965Z,2.20
2022-11-14T01:55:04.835Z,2.10
2022-11-14T01:57:50.149Z,2.10
2022-11-14T02:00:35.796Z,2.10
2022-11-14T02:03:24.255Z,2.10
2022-11-14T02:06:12.909Z,2.00
2022-11-14T02:09:02.061Z,2.00
2022-11-14T02:11:47.878Z,2.10
2022-11-14T02:14:36.876Z,2.10
2022-11-14T02:17:29.615Z,2.20
2022-11-14T02:20:21.503Z,2.20
2022-11-14T02:23:06.889Z,2.10
2022-11-14T02:25:52.768Z,2.00
2022-11-14T02:28:37.972Z,1.90
2022-11-14T02:31:23.726Z,2.00
2022-11-14T02:34:09.076Z,2.00
2022-11-14T02:36:55.275Z,2.10
2022-11-14T02:39:40.860Z,2.00
2022-11-14T02:42:26.128Z,2.00
2022-11-14T02:45:13.008Z,2.00
2022-11-14T02:47:58.115Z,2.00
2022-11-14T02:50:43.490Z,2.00
2022-11-14T02:53:29.043Z,2.00
2022-11-14T02:56:14.441Z,2.00
2022-11-14T02:59:00.081Z,2.00
2022-11-14T03:01:45.628Z,1.80
2022-11-14T03:04:30.923Z,1.90
2022-11-14T03:07:16.407Z,1.80
2022-11-14T03:10:02.022Z,1.80
2022-11-14T03:12:47.186Z,1.90
2022-11-14T03:15:32.535Z,1.80
2022-11-14T03:18:17.911Z,1.90
2022-11-14T03:21:12.013Z,1.90
2022-11-14T03:23:57.527Z,1.90
2022-11-14T03:26:42.896Z,1.90
2022-11-14T03:29:28.056Z,2.00
2022-11-14T03:32:13.735Z,2.00
2022-11-14T03:34:58.879Z,2.00
2022-11-14T03:37:44.539Z,2.00
2022-11-14T03:40:29.886Z,1.90
2022-11-14T03:43:15.798Z,1.90
2022-11-14T03:46:02.786Z,2.00
2022-11-14T03:48:48.191Z,2.00
2022-11-14T03:51:33.623Z,2.10
2022-11-14T03:54:19.097Z,2.10
2022-11-14T03:57:04.655Z,2.20
2022-11-14T03:59:50.137Z,2.30
2022-11-14T04:02:35.766Z,2.30
2022-11-14T04:05:21.855Z,2.40
2022-11-14T04:08:07.586Z,2.50
2022-11-14T04:10:52.877Z,2.50
2022-11-14T04:13:38.451Z,2.60
2022-11-14T04:16:24.000Z,2.60
2022-11-14T04:19:09.421Z,2.60
2022-11-14T04:21:54.721Z,2.60
2022-11-14T04:24:40.173Z,2.50
2022-11-14T04:27:25.636Z,2.60
2022-11-14T04:30:11.614Z,2.70
2022-11-14T04:32:57.123Z,2.70
2022-11-14T04:35:42.739Z,2.60
2022-11-14T04:38:28.279Z,2.50
2022-11-14T04:41:13.740Z,2.60
2022-11-14T04:43:59.379Z,2.70
2022-11-14T04:46:45.032Z,2.60
2022-11-14T04:49:30.311Z,2.60
2022-11-14T04:52:15.711Z,2.60
2022-11-14T04:55:01.039Z,2.60
2022-11-14T04:57:46.454Z,2.60
2022-11-14T05:00:32.170Z,2.50
2022-11-14T05:03:17.603Z,2.60
2022-11-14T05:06:03.808Z,2.50
2022-11-14T05:08:49.061Z,2.60
2022-11-14T05:11:34.446Z,2.50
2022-11-14T05:14:19.974Z,2.50
2022-11-14T05:17:05.439Z,2.60
2022-11-14T05:19:51.022Z,2.80
2022-11-14T05:22:36.277Z,2.90
2022-11-14T05:25:22.107Z,2.90
2022-11-14T05:28:07.327Z,3.00
2022-11-14T05:30:52.881Z,3.00
2022-11-14T05:33:38.439Z,3.00
2022-11-14T05:36:23.864Z,3.10
2022-11-14T05:39:09.076Z,3.10
2022-11-14T05:41:54.509Z,3.10
2022-11-14T05:44:39.995Z,3.10
2022-11-14T05:47:25.361Z,3.10
2022-11-14T05:50:10.802Z,3.10
2022-11-14T05:52:56.837Z,2.70
2022-11-14T05:55:41.822Z,2.80
2022-11-14T05:58:27.291Z,2.90
2022-11-14T06:01:19.221Z,2.80
2022-11-14T06:04:06.411Z,3.00
2022-11-14T06:06:51.851Z,3.20
2022-11-14T06:09:37.366Z,3.30
2022-11-14T06:12:22.777Z,3.30
2022-11-14T06:15:08.553Z,3.40
2022-11-14T06:17:54.557Z,3.50
2022-11-14T06:20:39.560Z,3.60
2022-11-14T06:23:25.300Z,3.60
2022-11-14T06:26:31.444Z,3.80
2022-11-14T06:29:16.521Z,3.90
2022-11-14T06:32:01.931Z,3.90
2022-11-14T06:34:47.414Z,4.00
2022-11-14T06:37:35.245Z,4.00
2022-11-14T06:40:20.305Z,4.00
2022-11-14T06:43:05.578Z,4.10
2022-11-14T06:45:54.343Z,4.30
2022-11-14T06:48:40.410Z,4.40
2022-11-14T06:51:25.587Z,4.40
2022-11-14T06:54:14.166Z,4.50
2022-11-14T06:57:02.563Z,4.70
2022-11-14T06:59:48.139Z,4.80
2022-11-14T07:02:33.366Z,4.90
2022-11-14T07:05:18.682Z,4.90
2022-11-14T07:08:04.360Z,5.00
2022-11-14T07:10:49.725Z,5.00
2022-11-14T07:13:36.104Z,5.10
2022-11-14T07:16:35.249Z,5.20
2022-11-14T07:19:20.486Z,5.30
2022-11-14T07:22:05.869Z,5.50
2022-11-14T07:24:51.331Z,5.60
2022-11-14T07:27:36.692Z,5.70
2022-11-14T07:30:22.310Z,5.80
2022-11-14T07:33:07.849Z,5.90
2022-11-14T07:35:53.307Z,6.10
2022-11-14T07:38:39.572Z,6.20
2022-11-14T07:41:24.878Z,6.30
2022-11-14T07:44:10.375Z,6.40
2022-11-14T07:46:57.146Z,6.40
2022-11-14T07:49:42.602Z,6.40
2022-11-14T07:52:28.089Z,6.60
2022-11-14T07:55:13.407Z,6.70
2022-11-14T07:58:01.819Z,6.70
2022-11-14T08:00:47.607Z,6.80
2022-11-14T08:03:33.711Z,7.00
2022-11-14T08:06:18.885Z,7.00
2022-11-14T08:09:04.561Z,7.20
2022-11-14T08:11:49.969Z,7.30
2022-11-14T08:14:35.762Z,7.40
2022-11-14T08:17:23.177Z,7.40
2022-11-14T08:20:09.618Z,7.40
2022-11-14T08:23:01.396Z,7.40
2022-11-14T08:25:46.808Z,7.50
2022-11-14T08:28:32.329Z,7.50
2022-11-14T08:31:17.737Z,7.60
2022-11-14T08:34:03.200Z,7.70
2022-11-14T08:36:48.659Z,7.70
2022-11-14T08:39:34.170Z,7.80
2022-11-14T08:42:19.455Z,7.90
2022-11-14T08:45:05.504Z,7.90
2022-11-14T08:47:52.456Z,7.90
2022-11-14T08:50:37.696Z,8.00
2022-11-14T08:53:23.519Z,8.00
2022-11-14T08:56:10.644Z,8.00
2022-11-14T08:58:56.214Z,8.00
2022-11-14T09:01:41.627Z,8.10
2022-11-14T09:04:27.020Z,8.20
2022-11-14T09:07:12.356Z,8.10
2022-11-14T09:09:57.594Z,8.00
2022-11-14T09:12:43.026Z,8.10
2022-11-14T09:15:28.825Z,8.10
2022-11-14T09:18:15.154Z,8.10
2022-11-14T09:21:06.511Z,8.20
2022-11-14T09:23:55.082Z,8.20
2022-11-14T09:26:42.704Z,8.20
2022-11-14T09:29:28.090Z,8.10
2022-11-14T09:32:13.479Z,8.20
2022-11-14T09:34:58.923Z,8.30
2022-11-14T09:37:44.296Z,8.30
2022-11-14T09:40:30.943Z,8.40
2022-11-14T09:43:47.545Z,8.50
2022-11-14T09:46:40.434Z,8.60
2022-11-14T09:49:37.508Z,8.70
2022-11-14T09:52:38.609Z,8.80
2022-11-14T09:55:35.234Z,8.70
2022-11-14T09:58:22.096Z,8.70
2022-11-14T10:01:29.160Z,8.70
2022-11-14T10:04:42.885Z,8.80
2022-11-14T10:07:57.832Z,8.90
2022-11-14T10:10:57.684Z,8.90
2022-11-14T10:14:05.629Z,9.00
2022-11-14T10:17:19.995Z,9.00
2022-11-14T10:20:23.593Z,9.00
2022-11-14T10:23:30.413Z,8.90
2022-11-14T10:26:26.323Z,8.80
2022-11-14T10:29:50.668Z,8.80
2022-11-14T10:32:54.179Z,8.80
2022-11-14T10:36:09.064Z,8.80
2022-11-14T10:39:14.143Z,8.80
2022-11-14T10:42:07.680Z,8.80
2022-11-14T10:45:16.476Z,8.80
2022-11-14T10:48:09.620Z,8.90
2022-11-14T10:51:16.658Z,8.90
2022-11-14T10:54:14.194Z,8.90
2022-11-14T10:56:59.832Z,9.00
2022-11-14T10:59:45.370Z,9.00
2022-11-14T11:02:48.619Z,9.10
2022-11-14T11:05:51.435Z,9.10
2022-11-14T11:09:00.958Z,9.00
2022-11-14T11:11:58.206Z,9.10
2022-11-14T11:14:47.886Z,9.10
2022-11-14T11:17:38.473Z,9.20
2022-11-14T11:20:39.416Z,9.30
2022-11-14T11:23:27.482Z,9.40
2022-11-14T11:26:32.695Z,9.40
2022-11-14T11:29:19.667Z,9.10
2022-11-14T11:32:05.314Z,9.20
2022-11-14T11:34:53.840Z,9.40
2022-11-14T11:37:55.939Z,9.50
2022-11-14T11:40:44.730Z,9.60
2022-11-14T11:43:57.212Z,9.80
2022-11-14T11:47:03.334Z,9.90
2022-11-14T11:49:54.344Z,9.80
2022-11-14T11:53:17.623Z,9.80
2022-11-14T11:56:12.815Z,9.90
2022-11-14T11:59:33.399Z,9.90
2022-11-14T12:02:26.826Z,10.00
2022-11-14T12:05:25.982Z,9.80
2022-11-14T12:08:26.839Z,9.80
2022-11-14T12:11:20.975Z,9.80
2022-11-14T12:14:27.837Z,9.80
2022-11-14T12:17:13.346Z,9.80
2022-11-14T12:20:12.543Z,9.90
2022-11-14T12:23:31.811Z,9.90
2022-11-14T12:26:41.977Z,9.90
2022-11-14T12:29:49.136Z,10.00
2022-11-14T12:32:41.902Z,10.10
2022-11-14T12:35:34.048Z,10.20
2022-11-14T12:38:21.299Z,10.30
2022-11-14T12:41:07.921Z,10.40
2022-11-14T12:43:53.363Z,10.40
2022-11-14T12:47:04.681Z,10.60
2022-11-14T12:49:53.168Z,10.60
2022-11-14T12:52:44.467Z,10.70
2022-11-14T12:55:29.669Z,10.70
2022-11-14T12:58:35.364Z,10.70
2022-11-14T13:01:26.757Z,10.70
2022-11-14T13:04:32.892Z,10.70
2022-11-14T13:07:39.431Z,10.60
2022-11-14T13:10:31.810Z,10.60
2022-11-14T13:13:36.445Z,10.50
2022-11-14T13:16:49.060Z,10.50
2022-11-14T13:19:53.512Z,10.40
2022-11-14T13:22:41.061Z,10.20
2022-11-14T13:25:26.684Z,10.10
2022-11-14T13:28:49.984Z,10.00
2022-11-14T13:31:46.048Z,10.00
2022-11-14T13:34:43.719Z,9.80
2022-11-14T13:37:44.575Z,9.90
2022-11-14T13:40:46.894Z,10.10
2022-11-14T13:44:03.499Z,10.10
2022-11-14T13:46:52.909Z,10.10
2022-11-14T13:49:59.659Z,10.10
2022-11-14T13:52:47.994Z,10.00
2022-11-14T13:56:16.238Z,9.90
2022-11-14T13:59:28.991Z,9.80
2022-11-14T14:02:47.541Z,9.70
2022-11-14T14:05:39.949Z,9.70
2022-11-14T14:08:57.021Z,9.70
2022-11-14T14:12:00.407Z,9.70
2022-11-14T14:15:00.520Z,9.70
2022-11-14T14:18:00.858Z,9.70
2022-11-14T14:20:53.268Z,9.60
2022-11-14T14:24:16.995Z,9.60
2022-11-14T14:27:14.320Z,9.60
2022-11-14T14:30:10.136Z,9.60
2022-11-14T14:33:08.160Z,9.50
2022-11-14T14:35:54.552Z,9.70
2022-11-14T14:38:40.026Z,9.70
2022-11-14T14:41:30.703Z,9.60
2022-11-14T14:44:37.200Z,9.70
2022-11-14T14:47:31.315Z,9.70
2022-11-14T14:50:23.199Z,9.70
2022-11-14T14:53:22.372Z,9.70
2022-11-14T14:56:26.681Z,9.70
2022-11-14T14:59:21.914Z,9.70
2022-11-14T15:02:16.159Z,9.70
2022-11-14T15:05:02.694Z,9.70
2022-11-14T15:07:49.944Z,9.70
2022-11-14T15:10:36.105Z,9.60
2022-11-14T15:13:23.621Z,9.60
2022-11-14T15:16:09.648Z,9.60
2022-11-14T15:18:57.261Z,9.60
2022-11-14T15:21:43.295Z,9.50
2022-11-14T15:24:29.507Z,9.50
2022-11-14T15:27:20.263Z,9.50
2022-11-14T15:30:19.298Z,9.50
2022-11-14T15:33:24.618Z,9.40
2022-11-14T15:36:17.851Z,9.40
2022-11-14T15:39:05.928Z,9.30
2022-11-14T15:42:21.068Z,9.20
2022-11-14T15:45:28.146Z,9.00
2022-11-14T15:48:17.969Z,8.90
2022-11-14T15:51:03.145Z,8.80
2022-11-14T15:53:49.956Z,8.80
2022-11-14T15:56:35.020Z,8.80
2022-11-14T15:59:21.057Z,8.80
2022-11-14T16:02:18.385Z,8.80
2022-11-14T16:05:05.053Z,8.80
2022-11-14T16:07:50.147Z,8.70
2022-11-14T16:10:35.560Z,8.70
2022-11-14T16:13:21.103Z,8.70
2022-11-14T16:16:06.752Z,8.70
2022-11-14T16:18:52.832Z,8.80
2022-11-14T16:21:38.289Z,8.80
2022-11-14T16:24:24.097Z,8.80
2022-11-14T16:27:09.928Z,8.90
2022-11-14T16:29:55.735Z,8.90
2022-11-14T16:32:46.210Z,9.00
2022-11-14T16:35:31.802Z,9.00
2022-11-14T16:38:17.316Z,9.00
2022-11-14T16:41:07.061Z,9.00
2022-11-14T16:43:55.014Z,9.00
2022-11-14T16:46:40.103Z,9.10
2022-11-14T16:49:25.696Z,9.00
2022-11-14T16:52:11.207Z,8.90
2022-11-14T16:54:56.810Z,8.80
2022-11-14T16:57:42.399Z,8.70
2022-11-14T17:00:27.875Z,8.70
2022-11-14T17:03:13.680Z,8.50
2022-11-14T17:05:58.916Z,8.50
2022-11-14T17:08:44.371Z,8.50
2022-11-14T17:11:29.951Z,8.50
2022-11-14T17:14:15.308Z,8.50
2022-11-14T17:17:03.651Z,8.50
2022-11-14T17:19:49.724Z,8.50
2022-11-14T17:22:35.246Z,8.50
2022-11-14T17:25:21.013Z,8.40
2022-11-14T17:28:06.201Z,8.30
2022-11-14T17:30:51.624Z,8.30
2022-11-14T17:33:37.695Z,8.20
2022-11-14T17:36:25.463Z,8.30
2022-11-14T17:39:11.061Z,8.20
2022-11-14T17:41:56.523Z,8.20
2022-11-14T17:44:42.060Z,8.10
2022-11-14T17:47:28.011Z,8.10
2022-11-14T17:50:13.088Z,8.10
2022-11-14T17:52:58.544Z,8.00
2022-11-14T17:55:44.695Z,8.10
2022-11-14T17:58:31.468Z,8.20
2022-11-14T18:01:22.466Z,8.10
2022-11-14T18:04:07.860Z,8.20
2022-11-14T18:06:53.464Z,8.10
2022-11-14T18:09:39.098Z,8.40
2022-11-14T18:12:24.288Z,8.30
2022-11-14T18:15:09.760Z,8.40
2022-11-14T18:17:55.638Z,8.40
2022-11-14T18:20:40.913Z,8.20
2022-11-14T18:23:26.680Z,8.20
2022-11-14T18:26:13.603Z,8.30
2022-11-14T18:29:02.863Z,8.30
2022-11-14T18:31:48.477Z,8.20
2022-11-14T18:34:37.040Z,8.40
2022-11-14T18:37:23.098Z,8.50
2022-11-14T18:40:16.166Z,8.60
2022-11-14T18:43:02.041Z,8.60
2022-11-14T18:45:47.687Z,8.40
2022-11-14T18:48:33.165Z,8.30
2022-11-14T18:51:24.502Z,8.40
2022-11-14T18:54:15.803Z,8.30
2022-11-14T18:57:01.570Z,8.30
2022-11-14T18:59:47.170Z,8.40
2022-11-14T19:02:32.855Z,8.30
2022-11-14T19:05:18.131Z,8.30
2022-11-14T19:08:05.244Z,8.10
2022-11-14T19:10:50.692Z,8.10
2022-11-14T19:13:36.275Z,8.10
2022-11-14T19:16:21.645Z,8.00
2022-11-14T19:19:07.950Z,8.00
2022-11-14T19:21:53.356Z,8.00
2022-11-14T19:24:42.890Z,8.00
2022-11-14T19:27:28.446Z,7.90
2022-11-14T19:30:15.965Z,7.90
2022-11-14T19:33:04.560Z,7.90
2022-11-14T19:35:50.246Z,7.90
2022-11-14T19:38:35.729Z,7.80
2022-11-14T19:41:22.762Z,7.70
2022-11-14T19:44:08.524Z,7.70
2022-11-14T19:46:54.209Z,7.70
2022-11-14T19:49:39.767Z,7.70
2022-11-14T19:52:25.309Z,7.60
2022-11-14T19:55:10.668Z,7.60
2022-11-14T19:57:56.425Z,7.70
2022-11-14T20:00:41.573Z,7.80
2022-11-14T20:03:27.844Z,7.80
2022-11-14T20:06:19.614Z,7.80
2022-11-14T20:09:10.309Z,7.80
2022-11-14T20:11:55.734Z,7.80
2022-11-14T20:14:41.454Z,7.80
2022-11-14T20:17:26.910Z,7.80
2022-11-14T20:20:12.413Z,7.80
2022-11-14T20:22:58.028Z,7.80
2022-11-14T20:25:43.542Z,7.70
2022-11-14T20:28:28.804Z,7.70
2022-11-14T20:31:17.508Z,7.60
2022-11-14T20:34:02.881Z,7.70
2022-11-14T20:39:53.579Z,7.50
2022-11-14T20:42:48.901Z,7.40
2022-11-14T20:45:34.186Z,7.30
2022-11-14T20:48:20.613Z,7.30
2022-11-14T20:51:10.776Z,7.10
2022-11-14T20:53:56.323Z,7.00
2022-11-14T20:56:41.636Z,7.00
2022-11-14T20:59:26.926Z,6.90
2022-11-14T21:02:12.952Z,6.90
2022-11-14T21:04:58.636Z,6.90
2022-11-14T21:07:44.888Z,6.90
2022-11-14T21:10:45.298Z,6.90
2022-11-14T21:13:49.898Z,6.80
2022-11-14T21:16:38.593Z,6.70
2022-11-14T21:19:24.360Z,6.70
2022-11-14T21:22:09.487Z,6.70
2022-11-14T21:24:54.847Z,6.50
2022-11-14T21:27:40.338Z,6.60
2022-11-14T21:30:26.163Z,6.60
2022-11-14T21:33:11.601Z,6.60
2022-11-14T21:36:03.919Z,6.70
2022-11-14T21:39:02.059Z,6.70
2022-11-14T21:41:49.106Z,6.70
2022-11-14T21:44:34.465Z,6.70
2022-11-14T21:47:20.033Z,6.70
2022-11-14T21:50:05.838Z,6.50
2022-11-14T21:52:51.061Z,6.40
2022-11-14T21:55:36.411Z,6.40
2022-11-14T21:58:21.602Z,6.30
2022-11-14T22:01:39.819Z,6.30
2022-11-14T22:04:25.543Z,6.30
2022-11-14T22:07:10.905Z,6.30
2022-11-14T22:09:56.018Z,6.30
2022-11-14T22:12:41.522Z,6.30
2022-11-14T22:15:27.006Z,6.20
2022-11-14T22:18:12.438Z,6.10
2022-11-14T22:20:59.584Z,6.20
2022-11-14T22:23:46.965Z,6.20
2022-11-14T22:26:35.206Z,6.20
2022-11-14T22:29:20.470Z,6.10
2022-11-14T22:32:05.985Z,6.10
2022-11-14T22:34:51.229Z,6.10
2022-11-14T22:37:36.599Z,6.00
2022-11-14T22:40:22.487Z,6.10
2022-11-14T22:43:07.806Z,5.90
2022-11-14T22:45:53.883Z,5.90
2022-11-14T22:48:39.970Z,6.00
2022-11-14T22:51:26.861Z,6.10
2022-11-14T22:54:13.214Z,6.00
2022-11-14T22:56:58.655Z,5.90
2022-11-14T22:59:44.142Z,6.00
2022-11-14T23:02:31.022Z,6.00
2022-11-14T23:05:17.581Z,6.00
2022-11-14T23:08:06.652Z,6.00
2022-11-14T23:10:51.874Z,5.90
2022-11-14T23:13:48.239Z,6.00
2022-11-14T23:16:33.810Z,6.00
2022-11-14T23:19:18.998Z,6.00
2022-11-14T23:22:04.414Z,6.00
2022-11-14T23:24:49.736Z,5.90
2022-11-14T23:27:35.535Z,5.90
2022-11-14T23:30:20.707Z,5.80
2022-11-14T23:33:06.077Z,5.90
2022-11-14T23:35:51.648Z,5.90
2022-11-14T23:38:37.039Z,6.00
2022-11-14T23:41:25.674Z,5.90
2022-11-14T23:44:11.007Z,5.90
2022-11-14T23:46:56.161Z,5.80
2022-11-14T23:49:41.627Z,5.90
2022-11-14T23:52:27.069Z,5.80
2022-11-14T23:55:12.642Z,5.90
2022-11-14T23:57:58.189Z,5.90
